createdAt,value
2016-11-27T00:00:24.815Z,0
2016-11-27T00:01:24.909Z,0
2016-11-27T00:02:24.936Z,0
2016-11-27T00:03:24.984Z,0
2016-11-27T00:04:25.048Z,0
2016-11-27T00:05:25.094Z,0
2016-11-27T00:06:25.431Z,0
2016-11-27T00:07:25.433Z,0
2016-11-27T00:08:25.319Z,0
2016-11-27T00:09:25.328Z,0
2016-11-27T00:10:25.403Z,0
2016-11-27T00:11:25.481Z,0
2016-11-27T00:12:25.505Z,0
2016-11-27T00:13:25.586Z,0
2016-11-27T00:14:25.628Z,0
2016-11-27T00:15:25.680Z,0
2016-11-27T00:16:25.745Z,0
2016-11-27T00:17:25.792Z,0
2016-11-27T00:18:25.884Z,0
2016-11-27T00:19:25.907Z,0
2016-11-27T00:20:25.982Z,0
2016-11-27T00:21:26.031Z,0
2016-11-27T00:22:26.097Z,0
2016-11-27T00:23:26.147Z,0
2016-11-27T00:24:26.228Z,0
2016-11-27T00:25:26.260Z,0
2016-11-27T00:26:26.295Z,0
2016-11-27T00:27:26.374Z,0
2016-11-27T00:28:26.458Z,0
2016-11-27T00:29:26.487Z,0
2016-11-27T00:30:26.558Z,0
2016-11-27T00:31:26.618Z,0
2016-11-27T00:32:26.639Z,0
2016-11-27T00:33:26.724Z,0
2016-11-27T00:34:26.970Z,0
2016-11-27T00:35:26.809Z,0
2016-11-27T00:36:27.111Z,0
2016-11-27T00:37:26.965Z,0
2016-11-27T00:38:27.003Z,0
2016-11-27T00:39:27.053Z,0
2016-11-27T00:40:27.158Z,0
2016-11-27T00:41:27.170Z,0
2016-11-27T00:42:27.217Z,0
2016-11-27T00:43:27.275Z,0
2016-11-27T00:44:27.349Z,0
2016-11-27T00:45:27.427Z,0
2016-11-27T00:46:27.456Z,0
2016-11-27T00:47:27.512Z,0
2016-11-27T00:48:27.576Z,0
2016-11-27T00:49:27.636Z,0
2016-11-27T00:50:27.994Z,0
2016-11-27T00:51:27.762Z,0
2016-11-27T00:52:27.804Z,0
2016-11-27T00:53:27.859Z,0
2016-11-27T00:54:27.919Z,0
2016-11-27T00:55:27.982Z,0
2016-11-27T00:56:28.384Z,0
2016-11-27T00:57:28.073Z,0
2016-11-27T00:58:28.133Z,0
2016-11-27T00:59:28.531Z,0
2016-11-27T01:00:28.294Z,0
2016-11-27T01:01:28.314Z,0
2016-11-27T01:02:28.587Z,0
2016-11-27T01:03:28.446Z,0
2016-11-27T01:04:28.498Z,0
2016-11-27T01:05:28.546Z,0
2016-11-27T01:06:28.606Z,0
2016-11-27T01:07:28.678Z,0
2016-11-27T01:08:28.737Z,0
2016-11-27T01:09:28.846Z,0
2016-11-27T01:10:28.852Z,0
2016-11-27T01:11:28.886Z,0
2016-11-27T01:12:28.967Z,0
2016-11-27T01:13:29.012Z,0
2016-11-27T01:14:29.087Z,0
2016-11-27T01:15:29.131Z,0
2016-11-27T01:16:29.203Z,0
2016-11-27T01:17:29.237Z,0
2016-11-27T01:18:29.305Z,0
2016-11-27T01:19:29.357Z,0
2016-11-27T01:20:29.432Z,0
2016-11-27T01:21:29.448Z,0
2016-11-27T01:22:29.541Z,0
2016-11-27T01:23:29.594Z,0
2016-11-27T01:24:29.677Z,0
2016-11-27T01:25:29.713Z,0
2016-11-27T01:26:29.764Z,0
2016-11-27T01:27:29.800Z,0
2016-11-27T01:28:29.879Z,0
2016-11-27T01:29:29.921Z,0
2016-11-27T01:30:30.014Z,0
2016-11-27T01:31:30.386Z,0
2016-11-27T01:32:30.107Z,0
2016-11-27T01:33:30.146Z,0
2016-11-27T01:34:30.218Z,0
2016-11-27T01:35:30.266Z,0
2016-11-27T01:36:30.329Z,0
2016-11-27T01:37:30.400Z,0
2016-11-27T01:38:30.446Z,0
2016-11-27T01:39:30.516Z,0
2016-11-27T01:40:30.582Z,0
2016-11-27T01:41:30.621Z,0
2016-11-27T01:42:30.741Z,0
2016-11-27T01:43:30.730Z,0
2016-11-27T01:44:30.807Z,0
2016-11-27T01:45:30.850Z,0
2016-11-27T01:46:30.924Z,0
2016-11-27T01:47:30.973Z,0
2016-11-27T01:48:31.033Z,0
2016-11-27T01:49:31.070Z,0
2016-11-27T01:50:31.137Z,0
2016-11-27T01:51:31.202Z,0
2016-11-27T01:52:31.262Z,0
2016-11-27T01:53:31.381Z,0
2016-11-27T01:54:31.380Z,0
2016-11-27T01:55:31.452Z,0
2016-11-27T01:56:31.484Z,0
2016-11-27T01:57:31.546Z,0
2016-11-27T01:58:31.576Z,0
2016-11-27T01:59:31.671Z,0
2016-11-27T02:00:31.728Z,0
2016-11-27T02:01:31.775Z,0
2016-11-27T02:02:31.848Z,0
2016-11-27T02:03:31.895Z,0
2016-11-27T02:04:31.935Z,0
2016-11-27T02:05:32.031Z,0
2016-11-27T02:06:32.052Z,0
2016-11-27T02:07:32.107Z,0
2016-11-27T02:08:32.172Z,0
2016-11-27T02:09:32.250Z,0
2016-11-27T02:10:32.311Z,0
2016-11-27T02:11:32.330Z,0
2016-11-27T02:12:32.387Z,0
2016-11-27T02:13:32.473Z,0
2016-11-27T02:14:32.513Z,0
2016-11-27T02:15:32.569Z,0
2016-11-27T02:16:32.637Z,0
2016-11-27T02:17:32.683Z,0
2016-11-27T02:18:32.763Z,0
2016-11-27T02:19:32.820Z,0
2016-11-27T02:20:32.887Z,0
2016-11-27T02:21:32.930Z,0
2016-11-27T02:22:33.003Z,0
2016-11-27T02:23:33.031Z,0
2016-11-27T02:24:33.106Z,0
2016-11-27T02:25:33.164Z,0
2016-11-27T02:26:33.200Z,0
2016-11-27T02:27:33.270Z,0
2016-11-27T02:28:33.317Z,0
2016-11-27T02:29:33.380Z,0
2016-11-27T02:30:33.426Z,0
2016-11-27T02:31:33.490Z,0
2016-11-27T02:32:33.561Z,0
2016-11-27T02:33:33.636Z,0
2016-11-27T02:34:33.678Z,0
2016-11-27T02:35:33.743Z,0
2016-11-27T02:36:33.785Z,0
2016-11-27T02:37:34.166Z,0
2016-11-27T02:38:33.897Z,0
2016-11-27T02:39:33.947Z,0
2016-11-27T02:40:34.005Z,0
2016-11-27T02:41:34.056Z,0
2016-11-27T02:42:34.142Z,0
2016-11-27T02:43:34.189Z,0
2016-11-27T02:44:34.271Z,0
2016-11-27T02:45:34.277Z,0
2016-11-27T02:46:34.356Z,0
2016-11-27T02:47:34.417Z,0
2016-11-27T02:48:34.473Z,0
2016-11-27T02:49:34.519Z,0
2016-11-27T02:50:34.600Z,0
2016-11-27T02:51:34.664Z,0
2016-11-27T02:52:34.710Z,0
2016-11-27T02:53:34.750Z,0
2016-11-27T02:54:34.822Z,0
2016-11-27T02:55:34.863Z,0
2016-11-27T02:56:34.926Z,0
2016-11-27T02:57:34.970Z,0
2016-11-27T02:58:35.055Z,0
2016-11-27T02:59:35.076Z,0
2016-11-27T03:00:35.219Z,0
2016-11-27T03:01:35.226Z,0
2016-11-27T03:02:35.287Z,0
2016-11-27T03:03:35.350Z,0
2016-11-27T03:04:35.391Z,0
2016-11-27T03:05:35.441Z,0
2016-11-27T03:06:35.517Z,0
2016-11-27T03:07:35.554Z,0
2016-11-27T03:08:35.631Z,0
2016-11-27T03:09:35.690Z,0
2016-11-27T03:10:36.036Z,0
2016-11-27T03:11:35.801Z,0
2016-11-27T03:12:35.847Z,0
2016-11-27T03:13:35.902Z,0
2016-11-27T03:14:35.948Z,0
2016-11-27T03:15:36.042Z,0
2016-11-27T03:16:36.086Z,0
2016-11-27T03:17:36.152Z,0
2016-11-27T03:18:36.248Z,0
2016-11-27T03:19:36.238Z,0
2016-11-27T03:20:36.317Z,0
2016-11-27T03:21:36.376Z,0
2016-11-27T03:22:36.441Z,0
2016-11-27T03:23:36.498Z,0
2016-11-27T03:24:36.559Z,0
2016-11-27T03:25:36.593Z,0
2016-11-27T03:26:36.645Z,0
2016-11-27T03:27:36.734Z,0
2016-11-27T03:28:37.062Z,0
2016-11-27T03:29:36.828Z,0
2016-11-27T03:30:36.891Z,0
2016-11-27T03:31:36.957Z,0
2016-11-27T03:32:36.988Z,0
2016-11-27T03:33:37.049Z,0
2016-11-27T03:34:37.115Z,0
2016-11-27T03:35:37.196Z,0
2016-11-27T03:36:37.235Z,0
2016-11-27T03:37:37.334Z,0
2016-11-27T03:38:37.367Z,0
2016-11-27T03:39:37.404Z,0
2016-11-27T03:40:37.479Z,0
2016-11-27T03:41:37.508Z,0
2016-11-27T03:42:37.560Z,0
2016-11-27T03:43:37.635Z,0
2016-11-27T03:44:37.730Z,0
2016-11-27T03:45:37.774Z,0
2016-11-27T03:46:37.808Z,0
2016-11-27T03:47:37.888Z,0
2016-11-27T03:48:37.973Z,0
2016-11-27T03:49:37.987Z,0
2016-11-27T03:50:38.057Z,0
2016-11-27T03:51:38.092Z,0
2016-11-27T03:52:38.171Z,0
2016-11-27T03:53:38.197Z,0
2016-11-27T03:54:38.265Z,0
2016-11-27T03:55:38.321Z,0
2016-11-27T03:56:38.409Z,0
2016-11-27T03:57:38.424Z,0
2016-11-27T03:58:38.485Z,0
2016-11-27T03:59:38.593Z,0
2016-11-27T04:00:38.604Z,0
2016-11-27T04:01:38.663Z,0
2016-11-27T04:02:38.721Z,0
2016-11-27T04:03:38.789Z,0
2016-11-27T04:04:38.836Z,0
2016-11-27T04:05:38.900Z,0
2016-11-27T04:06:38.946Z,0
2016-11-27T04:07:39.016Z,0
2016-11-27T04:08:39.062Z,0
2016-11-27T04:09:39.137Z,0
2016-11-27T04:10:39.163Z,0
2016-11-27T04:11:39.234Z,0
2016-11-27T04:12:39.304Z,0
2016-11-27T04:13:39.360Z,0
2016-11-27T04:14:39.420Z,0
2016-11-27T04:15:39.476Z,0
2016-11-27T04:16:39.536Z,0
2016-11-27T04:17:39.583Z,0
2016-11-27T04:18:39.660Z,0
2016-11-27T04:19:39.705Z,0
2016-11-27T04:20:39.792Z,0
2016-11-27T04:21:39.829Z,0
2016-11-27T04:22:39.899Z,0
2016-11-27T04:23:39.933Z,0
2016-11-27T04:24:39.972Z,0
2016-11-27T04:25:40.053Z,0
2016-11-27T04:26:40.099Z,0
2016-11-27T04:27:40.155Z,0
2016-11-27T04:28:40.199Z,0
2016-11-27T04:29:40.299Z,0
2016-11-27T04:30:40.348Z,0
2016-11-27T04:31:40.402Z,0
2016-11-27T04:32:40.435Z,0
2016-11-27T04:33:40.493Z,0
2016-11-27T04:34:40.537Z,0
2016-11-27T04:35:40.614Z,0
2016-11-27T04:36:40.691Z,0
2016-11-27T04:37:40.733Z,0
2016-11-27T04:38:40.793Z,0
2016-11-27T04:39:40.832Z,0
2016-11-27T04:40:40.880Z,0
2016-11-27T04:41:40.957Z,0
2016-11-27T04:42:41.019Z,0
2016-11-27T04:43:41.062Z,0
2016-11-27T04:44:41.135Z,0
2016-11-27T04:45:41.202Z,0
2016-11-27T04:46:41.293Z,0
2016-11-27T04:47:41.290Z,0
2016-11-27T04:48:41.356Z,0
2016-11-27T04:49:41.415Z,0
2016-11-27T04:50:41.486Z,0
2016-11-27T04:51:41.524Z,0
2016-11-27T04:52:41.598Z,0
2016-11-27T04:53:41.645Z,0
2016-11-27T04:54:41.687Z,0
2016-11-27T04:55:41.761Z,0
2016-11-27T04:56:41.811Z,0
2016-11-27T04:57:41.877Z,0
2016-11-27T04:58:41.929Z,0
2016-11-27T04:59:41.988Z,0
2016-11-27T05:00:42.026Z,0
2016-11-27T05:01:42.099Z,0
2016-11-27T05:02:42.163Z,0
2016-11-27T05:03:42.224Z,0
2016-11-27T05:04:42.261Z,0
2016-11-27T05:05:42.333Z,0
2016-11-27T05:06:42.700Z,0
2016-11-27T05:07:42.465Z,0
2016-11-27T05:08:42.515Z,0
2016-11-27T05:09:42.615Z,0
2016-11-27T05:10:42.595Z,0
2016-11-27T05:11:42.691Z,0
2016-11-27T05:12:42.719Z,0
2016-11-27T05:13:42.784Z,0
2016-11-27T05:14:42.863Z,0
2016-11-27T05:15:42.910Z,0
2016-11-27T05:16:42.953Z,0
2016-11-27T05:17:43.023Z,0
2016-11-27T05:18:43.079Z,0
2016-11-27T05:19:43.123Z,0
2016-11-27T05:20:43.216Z,0
2016-11-27T05:21:43.265Z,0
2016-11-27T05:22:43.296Z,0
2016-11-27T05:23:43.367Z,0
2016-11-27T05:24:43.431Z,0
2016-11-27T05:25:43.479Z,0
2016-11-27T05:26:43.532Z,0
2016-11-27T05:27:43.767Z,0
2016-11-27T05:28:43.659Z,0
2016-11-27T05:29:43.699Z,0
2016-11-27T05:30:43.779Z,0
2016-11-27T05:31:43.825Z,0
2016-11-27T05:32:43.861Z,0
2016-11-27T05:33:43.957Z,0
2016-11-27T05:34:43.999Z,0
2016-11-27T05:35:44.054Z,0
2016-11-27T05:36:44.123Z,0
2016-11-27T05:37:44.207Z,0
2016-11-27T05:38:44.222Z,0
2016-11-27T05:39:44.318Z,0
2016-11-27T05:40:44.343Z,0
2016-11-27T05:41:44.396Z,0
2016-11-27T05:42:44.458Z,0
2016-11-27T05:43:44.503Z,0
2016-11-27T05:44:44.573Z,0
2016-11-27T05:45:44.614Z,0
2016-11-27T05:46:44.689Z,0
2016-11-27T05:47:44.736Z,0
2016-11-27T05:48:44.787Z,0
2016-11-27T05:49:44.841Z,0
2016-11-27T05:50:44.910Z,0
2016-11-27T05:51:44.980Z,0
2016-11-27T05:52:45.040Z,0
2016-11-27T05:53:45.082Z,0
2016-11-27T05:54:45.147Z,0
2016-11-27T05:55:45.216Z,0
2016-11-27T05:56:45.290Z,0
2016-11-27T05:57:45.346Z,0
2016-11-27T05:58:45.388Z,0
2016-11-27T05:59:45.435Z,0
2016-11-27T06:00:45.491Z,0
2016-11-27T06:01:45.530Z,0
2016-11-27T06:02:45.631Z,0
2016-11-27T06:03:45.642Z,0
2016-11-27T06:04:45.746Z,0
2016-11-27T06:05:45.794Z,0
2016-11-27T06:06:45.827Z,0
2016-11-27T06:07:45.901Z,0
2016-11-27T06:08:45.967Z,0
2016-11-27T06:09:46.037Z,0
2016-11-27T06:10:46.107Z,0
2016-11-27T06:11:46.142Z,0
2016-11-27T06:12:46.195Z,0
2016-11-27T06:13:46.233Z,0
2016-11-27T06:14:46.320Z,0
2016-11-27T06:15:46.374Z,0
2016-11-27T06:16:46.428Z,0
2016-11-27T06:17:46.481Z,0
2016-11-27T06:18:46.537Z,0
2016-11-27T06:19:46.585Z,0
2016-11-27T06:20:46.661Z,0
2016-11-27T06:21:46.691Z,0
2016-11-27T06:22:46.755Z,0
2016-11-27T06:23:46.828Z,0
2016-11-27T06:24:46.870Z,0
2016-11-27T06:25:46.945Z,0
2016-11-27T06:26:47.009Z,0
2016-11-27T06:27:47.047Z,0
2016-11-27T06:28:47.129Z,0
2016-11-27T06:29:47.186Z,0
2016-11-27T06:30:47.201Z,0
2016-11-27T06:31:47.284Z,0
2016-11-27T06:32:47.331Z,0
2016-11-27T06:33:47.428Z,0
2016-11-27T06:34:47.467Z,0
2016-11-27T06:35:47.509Z,0
2016-11-27T06:36:47.582Z,0
2016-11-27T06:37:47.655Z,0
2016-11-27T06:38:47.680Z,0
2016-11-27T06:39:47.769Z,0
2016-11-27T06:40:47.789Z,0
2016-11-27T06:41:47.842Z,0
2016-11-27T06:42:47.945Z,0
2016-11-27T06:43:47.977Z,0
2016-11-27T06:44:48.036Z,0
2016-11-27T06:45:48.104Z,0
2016-11-27T06:46:48.160Z,0
2016-11-27T06:47:48.209Z,0
2016-11-27T06:48:48.270Z,0
2016-11-27T06:49:48.320Z,0
2016-11-27T06:50:48.369Z,0
2016-11-27T06:51:48.459Z,0
2016-11-27T06:52:48.499Z,0
2016-11-27T06:53:48.547Z,0
2016-11-27T06:54:48.589Z,0
2016-11-27T06:55:48.680Z,0
2016-11-27T06:56:48.747Z,0
2016-11-27T06:57:48.769Z,0
2016-11-27T06:58:48.848Z,0
2016-11-27T06:59:48.901Z,0
2016-11-27T07:00:48.951Z,0
2016-11-27T07:01:49.337Z,0
2016-11-27T07:02:49.391Z,0
2016-11-27T07:03:49.154Z,0
2016-11-27T07:04:49.207Z,0
2016-11-27T07:05:49.250Z,0
2016-11-27T07:06:49.296Z,0
2016-11-27T07:07:49.375Z,0
2016-11-27T07:08:49.416Z,0
2016-11-27T07:09:49.466Z,0
2016-11-27T07:10:49.552Z,0
2016-11-27T07:11:49.572Z,0
2016-11-27T07:12:49.669Z,5
2016-11-27T07:13:49.752Z,0
2016-11-27T07:14:49.790Z,0
2016-11-27T07:15:49.823Z,5
2016-11-27T07:16:49.888Z,0
2016-11-27T07:17:49.929Z,5
2016-11-27T07:18:50.011Z,5
2016-11-27T07:19:50.065Z,5
2016-11-27T07:20:50.117Z,5
2016-11-27T07:21:50.153Z,10
2016-11-27T07:22:50.233Z,10
2016-11-27T07:23:50.320Z,10
2016-11-27T07:24:50.333Z,10
2016-11-27T07:25:50.394Z,15
2016-11-27T07:26:50.497Z,10
2016-11-27T07:27:50.522Z,10
2016-11-27T07:28:50.573Z,20
2016-11-27T07:29:50.629Z,20
2016-11-27T07:30:50.702Z,15
2016-11-27T07:31:50.747Z,15
2016-11-27T07:32:50.808Z,20
2016-11-27T07:33:50.853Z,15
2016-11-27T07:34:50.904Z,15
2016-11-27T07:35:50.967Z,25
2016-11-27T07:36:51.037Z,20
2016-11-27T07:37:51.097Z,15
2016-11-27T07:38:51.175Z,25
2016-11-27T07:39:51.523Z,20
2016-11-27T07:40:51.288Z,20
2016-11-27T07:41:51.325Z,15
2016-11-27T07:42:51.411Z,15
2016-11-27T07:43:51.467Z,15
2016-11-27T07:44:51.522Z,35
2016-11-27T07:45:51.575Z,30
2016-11-27T07:46:51.605Z,25
2016-11-27T07:47:51.684Z,20
2016-11-27T07:48:52.036Z,20
2016-11-27T07:49:51.793Z,15
2016-11-27T07:50:51.844Z,25
2016-11-27T07:51:51.929Z,20
2016-11-27T07:52:51.978Z,15
2016-11-27T07:53:52.006Z,20
2016-11-27T07:54:52.110Z,25
2016-11-27T07:55:52.145Z,30
2016-11-27T07:56:52.213Z,25
2016-11-27T07:57:52.254Z,20
2016-11-27T07:58:52.317Z,20
2016-11-27T07:59:52.378Z,25
2016-11-27T08:00:52.448Z,25
2016-11-27T08:01:52.470Z,30
2016-11-27T08:02:52.541Z,40
2016-11-27T08:03:52.595Z,40
2016-11-27T08:04:52.645Z,30
2016-11-27T08:05:52.734Z,30
2016-11-27T08:06:52.778Z,30
2016-11-27T08:07:52.801Z,25
2016-11-27T08:08:52.905Z,30
2016-11-27T08:09:52.928Z,30
2016-11-27T08:10:53.015Z,30
2016-11-27T08:11:53.083Z,25
2016-11-27T08:12:53.101Z,25
2016-11-27T08:13:53.182Z,25
2016-11-27T08:14:53.228Z,40
2016-11-27T08:15:53.295Z,30
2016-11-27T08:16:53.332Z,20
2016-11-27T08:17:53.410Z,35
2016-11-27T08:18:53.446Z,40
2016-11-27T08:19:53.510Z,45
2016-11-27T08:20:53.550Z,25
2016-11-27T08:21:53.617Z,35
2016-11-27T08:22:53.692Z,40
2016-11-27T08:23:53.753Z,40
2016-11-27T08:24:53.788Z,50
2016-11-27T08:25:53.839Z,35
2016-11-27T08:26:53.928Z,45
2016-11-27T08:27:53.973Z,35
2016-11-27T08:28:54.029Z,40
2016-11-27T08:29:54.111Z,30
2016-11-27T08:30:54.154Z,45
2016-11-27T08:31:54.217Z,30
2016-11-27T08:32:54.270Z,40
2016-11-27T08:33:54.303Z,45
2016-11-27T08:34:54.392Z,30
2016-11-27T08:35:54.442Z,30
2016-11-27T08:36:54.478Z,35
2016-11-27T08:37:54.542Z,30
2016-11-27T08:38:54.614Z,45
2016-11-27T08:39:54.665Z,30
2016-11-27T08:40:54.721Z,30
2016-11-27T08:41:54.782Z,55
2016-11-27T08:42:54.869Z,40
2016-11-27T08:43:54.891Z,30
2016-11-27T08:44:55.001Z,40
2016-11-27T08:45:55.016Z,35
2016-11-27T08:46:55.067Z,40
2016-11-27T08:47:55.133Z,50
2016-11-27T08:48:55.189Z,45
2016-11-27T08:49:55.245Z,55
2016-11-27T08:50:55.314Z,50
2016-11-27T08:51:55.356Z,50
2016-11-27T08:52:55.430Z,45
2016-11-27T08:53:55.490Z,50
2016-11-27T08:54:55.562Z,45
2016-11-27T08:55:55.623Z,50
2016-11-27T08:56:55.653Z,50
2016-11-27T08:57:55.719Z,40
2016-11-27T08:58:55.769Z,55
2016-11-27T08:59:55.822Z,55
2016-11-27T09:00:55.881Z,55
2016-11-27T09:01:55.952Z,55
2016-11-27T09:02:56.020Z,35
2016-11-27T09:03:56.062Z,35
2016-11-27T09:04:56.101Z,20
2016-11-27T09:05:56.172Z,50
2016-11-27T09:06:56.229Z,55
2016-11-27T09:07:56.314Z,60
2016-11-27T09:08:56.374Z,40
2016-11-27T09:09:56.427Z,70
2016-11-27T09:10:56.496Z,55
2016-11-27T09:11:56.526Z,45
2016-11-27T09:12:56.599Z,50
2016-11-27T09:13:56.641Z,40
2016-11-27T09:14:56.713Z,45
2016-11-27T09:15:56.768Z,35
2016-11-27T09:16:56.826Z,50
2016-11-27T09:17:56.881Z,65
2016-11-27T09:18:56.927Z,35
2016-11-27T09:19:57.334Z,40
2016-11-27T09:20:57.027Z,75
2016-11-27T09:21:57.154Z,65
2016-11-27T09:22:57.172Z,60
2016-11-27T09:23:57.233Z,45
2016-11-27T09:24:57.299Z,60
2016-11-27T09:25:57.350Z,40
2016-11-27T09:26:57.408Z,45
2016-11-27T09:27:57.470Z,60
2016-11-27T09:28:57.536Z,35
2016-11-27T09:29:57.568Z,50
2016-11-27T09:30:57.637Z,35
2016-11-27T09:31:57.709Z,50
2016-11-27T09:32:57.765Z,55
2016-11-27T09:33:57.813Z,30
2016-11-27T09:34:57.889Z,45
2016-11-27T09:35:57.914Z,55
2016-11-27T09:36:57.997Z,60
2016-11-27T09:37:58.046Z,50
2016-11-27T09:38:58.096Z,35
2016-11-27T09:39:58.162Z,55
2016-11-27T09:40:58.236Z,50
2016-11-27T09:41:58.276Z,50
2016-11-27T09:42:58.338Z,35
2016-11-27T09:43:58.380Z,45
2016-11-27T09:44:58.440Z,40
2016-11-27T09:45:58.528Z,45
2016-11-27T09:46:58.874Z,55
2016-11-27T09:47:58.647Z,85
2016-11-27T09:48:58.687Z,70
2016-11-27T09:49:58.751Z,40
2016-11-27T09:50:58.793Z,60
2016-11-27T09:51:58.882Z,40
2016-11-27T09:52:58.935Z,55
2016-11-27T09:53:58.965Z,50
2016-11-27T09:54:59.015Z,45
2016-11-27T09:55:59.365Z,35
2016-11-27T09:56:59.135Z,50
2016-11-27T09:57:59.189Z,40
2016-11-27T09:58:59.254Z,40
2016-11-27T09:59:59.327Z,35
2016-11-27T10:00:59.398Z,35
2016-11-27T10:01:59.438Z,40
2016-11-27T10:02:59.501Z,40
2016-11-27T10:03:59.536Z,40
2016-11-27T10:04:59.623Z,45
2016-11-27T10:05:59.679Z,40
2016-11-27T10:06:59.721Z,40
2016-11-27T10:07:59.831Z,40
2016-11-27T10:08:59.840Z,40
2016-11-27T10:09:59.899Z,40
2016-11-27T10:10:59.950Z,40
2016-11-27T10:12:00.009Z,50
2016-11-27T10:13:00.080Z,45
2016-11-27T10:14:00.141Z,45
2016-11-27T10:15:00.221Z,45
2016-11-27T10:16:00.251Z,55
2016-11-27T10:17:00.308Z,55
2016-11-27T10:18:00.355Z,65
2016-11-27T10:19:00.419Z,60
2016-11-27T10:20:00.484Z,70
2016-11-27T10:21:00.551Z,65
2016-11-27T10:22:00.606Z,55
2016-11-27T10:23:00.668Z,60
2016-11-27T10:24:00.721Z,70
2016-11-27T10:25:00.793Z,45
2016-11-27T10:26:01.158Z,65
2016-11-27T10:27:00.889Z,45
2016-11-27T10:28:00.953Z,50
2016-11-27T10:29:00.993Z,65
2016-11-27T10:30:01.058Z,85
2016-11-27T10:31:01.114Z,65
2016-11-27T10:32:01.157Z,35
2016-11-27T10:33:01.243Z,40
2016-11-27T10:34:01.283Z,50
2016-11-27T10:35:01.373Z,45
2016-11-27T10:36:01.390Z,45
2016-11-27T10:37:01.462Z,40
2016-11-27T10:38:01.503Z,40
2016-11-27T10:39:01.597Z,45
2016-11-27T10:40:01.645Z,40
2016-11-27T10:41:01.719Z,40
2016-11-27T10:42:01.769Z,40
2016-11-27T10:43:01.810Z,40
2016-11-27T10:44:01.886Z,40
2016-11-27T10:45:01.950Z,40
2016-11-27T10:46:01.977Z,40
2016-11-27T10:47:02.070Z,40
2016-11-27T10:48:02.095Z,40
2016-11-27T10:49:02.161Z,45
2016-11-27T10:50:02.245Z,45
2016-11-27T10:51:02.285Z,45
2016-11-27T10:52:02.349Z,40
2016-11-27T10:53:02.416Z,45
2016-11-27T10:54:02.488Z,45
2016-11-27T10:55:02.544Z,45
2016-11-27T10:56:02.593Z,50
2016-11-27T10:57:02.642Z,45
2016-11-27T10:58:02.708Z,60
2016-11-27T10:59:02.765Z,60
2016-11-27T11:00:02.811Z,60
2016-11-27T11:01:02.868Z,70
2016-11-27T11:02:02.957Z,65
2016-11-27T11:03:03.015Z,50
2016-11-27T11:04:03.052Z,45
2016-11-27T11:05:03.119Z,45
2016-11-27T11:06:03.161Z,50
2016-11-27T11:07:03.218Z,55
2016-11-27T11:08:03.277Z,55
2016-11-27T11:09:03.347Z,55
2016-11-27T11:10:03.399Z,55
2016-11-27T11:11:03.470Z,55
2016-11-27T11:12:03.832Z,50
2016-11-27T11:13:03.581Z,45
2016-11-27T11:14:03.631Z,50
2016-11-27T11:15:03.676Z,50
2016-11-27T11:16:03.744Z,45
2016-11-27T11:17:03.815Z,40
2016-11-27T11:18:03.855Z,40
2016-11-27T11:19:03.967Z,55
2016-11-27T11:20:03.970Z,70
2016-11-27T11:21:04.045Z,55
2016-11-27T11:22:04.332Z,60
2016-11-27T11:23:04.471Z,65
2016-11-27T11:24:04.213Z,50
2016-11-27T11:25:04.295Z,70
2016-11-27T11:26:04.650Z,50
2016-11-27T11:27:04.683Z,65
2016-11-27T11:28:04.757Z,80
2016-11-27T11:29:04.491Z,55
2016-11-27T11:30:04.572Z,85
2016-11-27T11:31:04.610Z,55
2016-11-27T11:32:04.995Z,55
2016-11-27T11:33:05.082Z,55
2016-11-27T11:34:04.824Z,55
2016-11-27T11:35:04.884Z,70
2016-11-27T11:36:04.917Z,60
2016-11-27T11:37:05.008Z,60
2016-11-27T11:38:05.043Z,65
2016-11-27T11:39:05.085Z,70
2016-11-27T11:40:05.189Z,95
2016-11-27T11:41:05.562Z,80
2016-11-27T11:42:05.272Z,120
2016-11-27T11:43:05.362Z,105
2016-11-27T11:44:05.734Z,95
2016-11-27T11:45:05.460Z,70
2016-11-27T11:46:05.507Z,105
2016-11-27T11:47:05.557Z,55
2016-11-27T11:48:05.628Z,75
2016-11-27T11:49:06.223Z,70
2016-11-27T11:50:05.963Z,60
2016-11-27T11:51:05.788Z,65
2016-11-27T11:52:05.868Z,60
2016-11-27T11:53:05.923Z,55
2016-11-27T11:54:05.968Z,65
2016-11-27T11:55:06.079Z,65
2016-11-27T11:56:06.104Z,65
2016-11-27T11:57:06.473Z,60
2016-11-27T11:58:06.236Z,70
2016-11-27T11:59:06.285Z,65
2016-11-27T12:00:06.365Z,55
2016-11-27T12:01:06.393Z,60
2016-11-27T12:02:06.458Z,65
2016-11-27T12:03:06.517Z,55
2016-11-27T12:04:06.632Z,40
2016-11-27T12:05:06.958Z,45
2016-11-27T12:06:06.733Z,50
2016-11-27T12:07:06.764Z,50
2016-11-27T12:08:06.825Z,50
2016-11-27T12:09:06.872Z,40
2016-11-27T12:10:06.937Z,45
2016-11-27T12:11:07.008Z,60
2016-11-27T12:12:07.364Z,45
2016-11-27T12:13:07.101Z,35
2016-11-27T12:14:07.169Z,60
2016-11-27T12:15:07.209Z,50
2016-11-27T12:16:07.519Z,45
2016-11-27T12:17:07.563Z,45
2016-11-27T12:18:07.404Z,40
2016-11-27T12:19:07.468Z,35
2016-11-27T12:20:07.514Z,30
2016-11-27T12:21:07.588Z,40
2016-11-27T12:22:07.617Z,25
2016-11-27T12:23:08.053Z,25
2016-11-27T12:24:07.739Z,35
2016-11-27T12:25:07.816Z,35
2016-11-27T12:26:07.876Z,40
2016-11-27T12:27:07.942Z,35
2016-11-27T12:28:08.008Z,25
2016-11-27T12:29:08.059Z,25
2016-11-27T12:30:08.088Z,35
2016-11-27T12:31:08.474Z,35
2016-11-27T12:32:08.249Z,35
2016-11-27T12:33:08.289Z,35
2016-11-27T12:34:08.335Z,25
2016-11-27T12:35:08.416Z,30
2016-11-27T12:36:08.449Z,35
2016-11-27T12:37:08.513Z,45
2016-11-27T12:38:08.611Z,40
2016-11-27T12:39:08.639Z,40
2016-11-27T12:40:08.695Z,40
2016-11-27T12:41:08.730Z,40
2016-11-27T12:42:08.788Z,30
2016-11-27T12:43:08.865Z,40
2016-11-27T12:44:08.922Z,35
2016-11-27T12:45:08.968Z,40
2016-11-27T12:46:09.018Z,25
2016-11-27T12:47:09.091Z,30
2016-11-27T12:48:09.152Z,20
2016-11-27T12:49:09.223Z,25
2016-11-27T12:50:09.274Z,20
2016-11-27T12:51:09.323Z,20
2016-11-27T12:52:09.396Z,20
2016-11-27T12:53:09.453Z,25
2016-11-27T12:54:09.495Z,20
2016-11-27T12:55:09.572Z,25
2016-11-27T12:56:09.653Z,15
2016-11-27T12:57:09.694Z,25
2016-11-27T12:58:09.733Z,20
2016-11-27T12:59:09.807Z,20
2016-11-27T13:00:09.881Z,25
2016-11-27T13:01:09.900Z,20
2016-11-27T13:02:09.987Z,20
2016-11-27T13:03:10.055Z,25
2016-11-27T13:04:10.090Z,35
2016-11-27T13:05:10.129Z,25
2016-11-27T13:06:10.205Z,25
2016-11-27T13:07:10.283Z,25
2016-11-27T13:08:10.314Z,25
2016-11-27T13:09:10.406Z,25
2016-11-27T13:10:10.639Z,25
2016-11-27T13:11:10.701Z,35
2016-11-27T13:12:10.532Z,40
2016-11-27T13:13:10.613Z,30
2016-11-27T13:14:10.966Z,25
2016-11-27T13:15:10.744Z,35
2016-11-27T13:16:10.801Z,35
2016-11-27T13:17:10.864Z,20
2016-11-27T13:18:10.909Z,30
2016-11-27T13:19:10.960Z,40
2016-11-27T13:20:11.024Z,30
2016-11-27T13:21:11.096Z,30
2016-11-27T13:22:11.145Z,40
2016-11-27T13:23:11.186Z,40
2016-11-27T13:24:11.273Z,30
2016-11-27T13:25:11.317Z,30
2016-11-27T13:26:11.403Z,35
2016-11-27T13:27:11.437Z,30
2016-11-27T13:28:11.498Z,35
2016-11-27T13:29:11.567Z,30
2016-11-27T13:30:11.615Z,25
2016-11-27T13:31:11.660Z,25
2016-11-27T13:32:11.712Z,30
2016-11-27T13:33:11.766Z,30
2016-11-27T13:34:11.812Z,35
2016-11-27T13:35:11.887Z,30
2016-11-27T13:36:11.922Z,25
2016-11-27T13:37:12.347Z,25
2016-11-27T13:38:12.293Z,20
2016-11-27T13:39:12.335Z,15
2016-11-27T13:40:12.166Z,20
2016-11-27T13:41:12.254Z,15
2016-11-27T13:42:12.283Z,15
2016-11-27T13:43:12.358Z,15
2016-11-27T13:44:12.407Z,20
2016-11-27T13:45:12.461Z,20
2016-11-27T13:46:12.520Z,20
2016-11-27T13:47:12.594Z,20
2016-11-27T13:48:12.637Z,20
2016-11-27T13:49:12.702Z,20
2016-11-27T13:50:13.036Z,20
2016-11-27T13:51:12.801Z,20
2016-11-27T13:52:12.850Z,20
2016-11-27T13:53:12.952Z,20
2016-11-27T13:54:12.986Z,20
2016-11-27T13:55:13.040Z,20
2016-11-27T13:56:13.090Z,20
2016-11-27T13:57:13.153Z,20
2016-11-27T13:58:13.213Z,15
2016-11-27T13:59:13.269Z,15
2016-11-27T14:00:13.320Z,10
2016-11-27T14:01:13.396Z,10
2016-11-27T14:02:13.441Z,10
2016-11-27T14:03:13.503Z,10
2016-11-27T14:04:13.579Z,10
2016-11-27T14:05:13.843Z,10
2016-11-27T14:06:13.882Z,10
2016-11-27T14:07:13.730Z,10
2016-11-27T14:08:13.817Z,10
2016-11-27T14:09:13.862Z,10
2016-11-27T14:10:13.906Z,10
2016-11-27T14:11:13.961Z,10
2016-11-27T14:12:14.024Z,10
2016-11-27T14:13:14.102Z,10
2016-11-27T14:14:14.121Z,10
2016-11-27T14:15:14.211Z,10
2016-11-27T14:16:14.274Z,10
2016-11-27T14:17:14.302Z,10
2016-11-27T14:18:14.412Z,10
2016-11-27T14:19:14.413Z,10
2016-11-27T14:20:14.486Z,5
2016-11-27T14:21:14.552Z,5
2016-11-27T14:22:14.590Z,5
2016-11-27T14:23:14.669Z,5
2016-11-27T14:24:14.740Z,5
2016-11-27T14:25:14.787Z,5
2016-11-27T14:26:14.803Z,5
2016-11-27T14:27:14.913Z,5
2016-11-27T14:28:14.947Z,5
2016-11-27T14:29:15.003Z,5
2016-11-27T14:30:15.086Z,5
2016-11-27T14:31:15.126Z,5
2016-11-27T14:32:15.185Z,5